sensor_id;sensor_type;location;lat;lon;timestamp;pressure;altitude;pressure_sealevel;temperature;humidity
79376;BME280;68846;53.150;18.136;2024-02-14T00:01:52;101546.88;;;1.28;80.37
79376;BME280;68846;53.150;18.136;2024-02-14T00:05:56;101550.17;;;1.31;80.35
79376;BME280;68846;53.150;18.136;2024-02-14T00:08:24;101550.35;;;1.31;80.14
79376;BME280;68846;53.150;18.136;2024-02-14T00:10:51;101552.96;;;1.31;80.36
79376;BME280;68846;53.150;18.136;2024-02-14T00:13:18;101547.98;;;1.29;80.42
79376;BME280;68846;53.150;18.136;2024-02-14T00:15:45;101552.87;;;1.27;80.30
79376;BME280;68846;53.150;18.136;2024-02-14T00:18:14;101559.02;;;1.26;80.44
79376;BME280;68846;53.150;18.136;2024-02-14T00:20:42;101563.83;;;1.25;80.44
79376;BME280;68846;53.150;18.136;2024-02-14T00:27:40;101568.77;;;1.26;80.41
79376;BME280;68846;53.150;18.136;2024-02-14T00:35:05;101564.48;;;1.26;80.96
79376;BME280;68846;53.150;18.136;2024-02-14T00:37:32;101562.52;;;1.26;81.01
79376;BME280;68846;53.150;18.136;2024-02-14T00:40:51;101563.09;;;1.26;80.81
79376;BME280;68846;53.150;18.136;2024-02-14T00:43:18;101567.90;;;1.29;80.87
79376;BME280;68846;53.150;18.136;2024-02-14T00:50:16;101571.82;;;1.45;81.18
79376;BME280;68846;53.150;18.136;2024-02-14T00:52:43;101569.50;;;1.49;81.15
79376;BME280;68846;53.150;18.136;2024-02-14T00:55:10;101565.33;;;1.49;80.81
79376;BME280;68846;53.150;18.136;2024-02-14T01:02:09;101570.61;;;1.47;81.02
79376;BME280;68846;53.150;18.136;2024-02-14T01:04:37;101568.35;;;1.50;81.11
79376;BME280;68846;53.150;18.136;2024-02-14T01:07:07;101569.86;;;1.55;81.06
79376;BME280;68846;53.150;18.136;2024-02-14T01:14:10;101556.77;;;1.59;80.66
79376;BME280;68846;53.150;18.136;2024-02-14T01:16:45;101554.52;;;1.57;80.86
79376;BME280;68846;53.150;18.136;2024-02-14T01:24:09;101562.45;;;1.42;80.59
79376;BME280;68846;53.150;18.136;2024-02-14T01:30:18;101564.19;;;1.31;80.88
79376;BME280;68846;53.150;18.136;2024-02-14T01:32:46;101571.12;;;1.30;81.24
79376;BME280;68846;53.150;18.136;2024-02-14T01:35:13;101574.51;;;1.31;81.17
79376;BME280;68846;53.150;18.136;2024-02-14T01:37:40;101573.67;;;1.35;81.23
79376;BME280;68846;53.150;18.136;2024-02-14T01:40:08;101574.10;;;1.33;81.07
79376;BME280;68846;53.150;18.136;2024-02-14T01:42:35;101570.57;;;1.29;81.07
79376;BME280;68846;53.150;18.136;2024-02-14T01:45:02;101565.45;;;1.26;81.03
79376;BME280;68846;53.150;18.136;2024-02-14T01:47:30;101570.14;;;1.20;80.92
79376;BME280;68846;53.150;18.136;2024-02-14T01:50:00;101566.92;;;1.16;81.12
79376;BME280;68846;53.150;18.136;2024-02-14T01:52:30;101565.94;;;1.14;81.31
79376;BME280;68846;53.150;18.136;2024-02-14T01:59:05;101576.91;;;1.15;81.17
79376;BME280;68846;53.150;18.136;2024-02-14T02:01:35;101578.81;;;1.12;81.27
79376;BME280;68846;53.150;18.136;2024-02-14T02:04:03;101574.67;;;1.09;81.24
79376;BME280;68846;53.150;18.136;2024-02-14T02:15:12;101575.90;;;0.99;81.21
79376;BME280;68846;53.150;18.136;2024-02-14T02:17:42;101573.00;;;0.94;81.24
79376;BME280;68846;53.150;18.136;2024-02-14T02:20:10;101571.95;;;0.91;81.20
79376;BME280;68846;53.150;18.136;2024-02-14T02:22:45;101574.45;;;0.90;81.45
79376;BME280;68846;53.150;18.136;2024-02-14T02:25:57;101569.84;;;0.88;81.43
79376;BME280;68846;53.150;18.136;2024-02-14T02:28:24;101570.38;;;0.89;81.56
79376;BME280;68846;53.150;18.136;2024-02-14T02:30:51;101570.67;;;0.90;81.57
79376;BME280;68846;53.150;18.136;2024-02-14T02:38:16;101569.17;;;0.89;81.48
79376;BME280;68846;53.150;18.136;2024-02-14T02:45:44;101575.33;;;0.98;81.36
79376;BME280;68846;53.150;18.136;2024-02-14T02:48:11;101580.19;;;0.98;81.47
79376;BME280;68846;53.150;18.136;2024-02-14T02:50:38;101580.06;;;0.99;81.39
79376;BME280;68846;53.150;18.136;2024-02-14T02:53:05;101581.68;;;1.00;81.21
79376;BME280;68846;53.150;18.136;2024-02-14T02:55:32;101581.02;;;1.00;81.28
79376;BME280;68846;53.150;18.136;2024-02-14T02:57:59;101578.58;;;0.97;81.02
79376;BME280;68846;53.150;18.136;2024-02-14T03:00:30;101585.23;;;0.93;80.95
79376;BME280;68846;53.150;18.136;2024-02-14T03:02:57;101584.76;;;0.88;81.16
79376;BME280;68846;53.150;18.136;2024-02-14T03:05:26;101589.08;;;0.82;81.26
79376;BME280;68846;53.150;18.136;2024-02-14T03:07:55;101592.11;;;0.78;81.25
79376;BME280;68846;53.150;18.136;2024-02-14T03:10:26;101592.94;;;0.75;81.29
79376;BME280;68846;53.150;18.136;2024-02-14T03:12:53;101596.19;;;0.74;81.43
79376;BME280;68846;53.150;18.136;2024-02-14T03:15:21;101597.10;;;0.75;81.20
79376;BME280;68846;53.150;18.136;2024-02-14T03:18:39;101598.20;;;0.76;81.14
79376;BME280;68846;53.150;18.136;2024-02-14T03:21:06;101602.48;;;0.78;81.19
79376;BME280;68846;53.150;18.136;2024-02-14T03:23:33;101607.48;;;0.78;81.06
79376;BME280;68846;53.150;18.136;2024-02-14T03:26:00;101605.19;;;0.77;81.10
79376;BME280;68846;53.150;18.136;2024-02-14T03:37:55;101598.69;;;0.62;81.23
79376;BME280;68846;53.150;18.136;2024-02-14T03:40:24;101602.77;;;0.61;81.22
79376;BME280;68846;53.150;18.136;2024-02-14T03:51:54;101606.64;;;0.51;81.48
79376;BME280;68846;53.150;18.136;2024-02-14T04:04:13;101608.02;;;0.38;81.64
79376;BME280;68846;53.150;18.136;2024-02-14T04:06:40;101614.38;;;0.37;81.61
79376;BME280;68846;53.150;18.136;2024-02-14T04:09:09;101617.52;;;0.37;81.63
79376;BME280;68846;53.150;18.136;2024-02-14T04:11:37;101622.14;;;0.37;81.51
79376;BME280;68846;53.150;18.136;2024-02-14T04:18:35;101615.54;;;0.34;81.63
79376;BME280;68846;53.150;18.136;2024-02-14T04:24:44;101616.20;;;0.29;81.73
79376;BME280;68846;53.150;18.136;2024-02-14T04:31:18;101613.37;;;0.28;82.16
79376;BME280;68846;53.150;18.136;2024-02-14T04:33:45;101610.48;;;0.31;82.26
79376;BME280;68846;53.150;18.136;2024-02-14T04:41:15;101608.52;;;0.43;81.92
79376;BME280;68846;53.150;18.136;2024-02-14T04:43:43;101606.63;;;0.46;81.99
79376;BME280;68846;53.150;18.136;2024-02-14T04:46:10;101604.10;;;0.47;81.75
79376;BME280;68846;53.150;18.136;2024-02-14T04:48:37;101607.32;;;0.48;81.68
79376;BME280;68846;53.150;18.136;2024-02-14T04:51:04;101607.02;;;0.49;81.60
79376;BME280;68846;53.150;18.136;2024-02-14T04:53:31;101604.20;;;0.48;81.63
79376;BME280;68846;53.150;18.136;2024-02-14T04:55:58;101603.82;;;0.48;81.64
79376;BME280;68846;53.150;18.136;2024-02-14T04:58:27;101602.07;;;0.48;81.82
79376;BME280;68846;53.150;18.136;2024-02-14T05:00:54;101603.63;;;0.45;81.51
79376;BME280;68846;53.150;18.136;2024-02-14T05:03:21;101610.47;;;0.41;81.42
79376;BME280;68846;53.150;18.136;2024-02-14T05:05:50;101613.27;;;0.36;81.66
79376;BME280;68846;53.150;18.136;2024-02-14T05:08:43;101613.42;;;0.34;81.48
79376;BME280;68846;53.150;18.136;2024-02-14T05:11:10;101614.38;;;0.32;81.77
79376;BME280;68846;53.150;18.136;2024-02-14T05:13:38;101608.61;;;0.32;82.05
79376;BME280;68846;53.150;18.136;2024-02-14T05:16:08;101610.05;;;0.32;81.87
79376;BME280;68846;53.150;18.136;2024-02-14T05:18:38;101611.59;;;0.32;81.82
79376;BME280;68846;53.150;18.136;2024-02-14T05:21:06;101606.50;;;0.31;81.66
79376;BME280;68846;53.150;18.136;2024-02-14T05:23:34;101603.92;;;0.29;81.78
79376;BME280;68846;53.150;18.136;2024-02-14T05:26:02;101605.70;;;0.27;81.89
79376;BME280;68846;53.150;18.136;2024-02-14T05:28:32;101607.25;;;0.24;81.84
79376;BME280;68846;53.150;18.136;2024-02-14T05:30:59;101608.16;;;0.22;81.88
79376;BME280;68846;53.150;18.136;2024-02-14T05:33:27;101609.35;;;0.21;81.93
79376;BME280;68846;53.150;18.136;2024-02-14T05:35:54;101607.89;;;0.23;82.00
79376;BME280;68846;53.150;18.136;2024-02-14T05:38:21;101607.90;;;0.26;82.00
79376;BME280;68846;53.150;18.136;2024-02-14T05:40:48;101607.91;;;0.29;81.93
79376;BME280;68846;53.150;18.136;2024-02-14T05:43:16;101614.80;;;0.30;81.92
79376;BME280;68846;53.150;18.136;2024-02-14T05:45:45;101617.61;;;0.31;81.69
79376;BME280;68846;53.150;18.136;2024-02-14T05:48:13;101613.52;;;0.30;81.66
79376;BME280;68846;53.150;18.136;2024-02-14T05:50:41;101613.48;;;0.26;81.66
79376;BME280;68846;53.150;18.136;2024-02-14T05:56:26;101623.15;;;0.16;81.60
79376;BME280;68846;53.150;18.136;2024-02-14T05:58:53;101624.59;;;0.14;81.71
79376;BME280;68846;53.150;18.136;2024-02-14T06:01:20;101620.13;;;0.15;81.78
79376;BME280;68846;53.150;18.136;2024-02-14T06:03:49;101622.64;;;0.16;81.65
79376;BME280;68846;53.150;18.136;2024-02-14T06:06:16;101624.02;;;0.18;81.62
79376;BME280;68846;53.150;18.136;2024-02-14T06:08:43;101627.10;;;0.15;81.38
79376;BME280;68846;53.150;18.136;2024-02-14T06:11:11;101633.00;;;0.13;81.45
79376;BME280;68846;53.150;18.136;2024-02-14T06:13:40;101636.94;;;0.10;81.46
79376;BME280;68846;53.150;18.136;2024-02-14T06:16:08;101639.73;;;0.07;81.69
79376;BME280;68846;53.150;18.136;2024-02-14T06:18:38;101642.23;;;0.06;81.67
79376;BME280;68846;53.150;18.136;2024-02-14T06:21:08;101641.04;;;0.06;81.74
79376;BME280;68846;53.150;18.136;2024-02-14T06:27:44;101645.44;;;0.05;81.83
79376;BME280;68846;53.150;18.136;2024-02-14T06:30:12;101639.51;;;0.02;81.60
79376;BME280;68846;53.150;18.136;2024-02-14T06:32:39;101637.27;;;-0.01;81.83
79376;BME280;68846;53.150;18.136;2024-02-14T06:35:06;101642.16;;;-0.00;82.07
79376;BME280;68846;53.150;18.136;2024-02-14T06:37:33;101641.68;;;0.03;81.81
79376;BME280;68846;53.150;18.136;2024-02-14T06:40:01;101645.84;;;0.06;82.09
79376;BME280;68846;53.150;18.136;2024-02-14T06:42:28;101647.38;;;0.10;81.96
79376;BME280;68846;53.150;18.136;2024-02-14T06:44:55;101652.88;;;0.14;82.14
79376;BME280;68846;53.150;18.136;2024-02-14T06:47:23;101650.56;;;0.19;82.15
79376;BME280;68846;53.150;18.136;2024-02-14T06:49:50;101650.60;;;0.22;82.01
79376;BME280;68846;53.150;18.136;2024-02-14T06:52:17;101654.59;;;0.25;81.90
79376;BME280;68846;53.150;18.136;2024-02-14T06:54:44;101653.17;;;0.30;82.12
79376;BME280;68846;53.150;18.136;2024-02-14T06:57:12;101646.52;;;0.33;82.00
79376;BME280;68846;53.150;18.136;2024-02-14T06:59:39;101647.71;;;0.39;81.80
79376;BME280;68846;53.150;18.136;2024-02-14T07:06:38;101649.86;;;0.37;81.66
79376;BME280;68846;53.150;18.136;2024-02-14T07:09:06;101649.36;;;0.35;81.56
79376;BME280;68846;53.150;18.136;2024-02-14T07:11:33;101648.61;;;0.34;81.92
79376;BME280;68846;53.150;18.136;2024-02-14T07:14:00;101646.05;;;0.34;82.09
79376;BME280;68846;53.150;18.136;2024-02-14T07:16:27;101644.48;;;0.37;82.10
79376;BME280;68846;53.150;18.136;2024-02-14T07:18:55;101647.03;;;0.41;82.10
79376;BME280;68846;53.150;18.136;2024-02-14T07:21:24;101649.02;;;0.47;82.42
79376;BME280;68846;53.150;18.136;2024-02-14T07:23:51;101650.09;;;0.53;82.26
79376;BME280;68846;53.150;18.136;2024-02-14T07:27:11;101649.77;;;0.61;82.57
79376;BME280;68846;53.150;18.136;2024-02-14T07:29:38;101645.39;;;0.71;82.50
79376;BME280;68846;53.150;18.136;2024-02-14T07:32:05;101643.81;;;0.76;82.60
79376;BME280;68846;53.150;18.136;2024-02-14T07:34:33;101649.65;;;0.83;82.65
79376;BME280;68846;53.150;18.136;2024-02-14T07:37:00;101647.36;;;0.88;82.76
79376;BME280;68846;53.150;18.136;2024-02-14T07:39:31;101650.61;;;0.93;82.75
79376;BME280;68846;53.150;18.136;2024-02-14T07:41:58;101648.86;;;0.98;82.95
79376;BME280;68846;53.150;18.136;2024-02-14T07:48:59;101648.77;;;1.15;82.82
79376;BME280;68846;53.150;18.136;2024-02-14T07:55:34;101640.17;;;1.30;82.82
79376;BME280;68846;53.150;18.136;2024-02-14T07:58:01;101640.60;;;1.37;82.80
79376;BME280;68846;53.150;18.136;2024-02-14T08:00:53;101634.64;;;1.44;82.95
79376;BME280;68846;53.150;18.136;2024-02-14T08:03:20;101631.39;;;1.53;82.72
79376;BME280;68846;53.150;18.136;2024-02-14T08:05:48;101632.48;;;1.59;82.65
79376;BME280;68846;53.150;18.136;2024-02-14T08:08:15;101631.74;;;1.65;82.54
79376;BME280;68846;53.150;18.136;2024-02-14T08:10:42;101626.34;;;1.70;82.67
79376;BME280;68846;53.150;18.136;2024-02-14T08:13:09;101627.65;;;1.77;82.59
79376;BME280;68846;53.150;18.136;2024-02-14T08:15:36;101626.55;;;1.81;82.41
79376;BME280;68846;53.150;18.136;2024-02-14T08:18:03;101624.96;;;1.87;82.59
79376;BME280;68846;53.150;18.136;2024-02-14T08:20:31;101627.60;;;1.93;82.61
79376;BME280;68846;53.150;18.136;2024-02-14T08:23:00;101625.55;;;2.00;82.72
79376;BME280;68846;53.150;18.136;2024-02-14T08:25:27;101631.67;;;2.06;82.63
79376;BME280;68846;53.150;18.136;2024-02-14T08:27:54;101635.75;;;2.13;82.51
79376;BME280;68846;53.150;18.136;2024-02-14T08:30:21;101632.90;;;2.21;82.49
79376;BME280;68846;53.150;18.136;2024-02-14T08:32:48;101628.48;;;2.28;82.53
79376;BME280;68846;53.150;18.136;2024-02-14T08:35:17;101624.54;;;2.35;82.36
79376;BME280;68846;53.150;18.136;2024-02-14T08:37:44;101623.80;;;2.44;82.37
79376;BME280;68846;53.150;18.136;2024-02-14T08:40:11;101623.41;;;2.51;82.13
79376;BME280;68846;53.150;18.136;2024-02-14T08:42:39;101622.03;;;2.58;82.47
79376;BME280;68846;53.150;18.136;2024-02-14T08:45:07;101624.55;;;2.65;82.61
79376;BME280;68846;53.150;18.136;2024-02-14T08:47:35;101625.93;;;2.71;82.19
79376;BME280;68846;53.150;18.136;2024-02-14T08:50:04;101623.84;;;2.77;82.54
79376;BME280;68846;53.150;18.136;2024-02-14T08:52:32;101625.41;;;2.83;82.25
79376;BME280;68846;53.150;18.136;2024-02-14T08:54:59;101623.65;;;2.89;82.09
79376;BME280;68846;53.150;18.136;2024-02-14T08:57:26;101624.13;;;2.94;81.90
79376;BME280;68846;53.150;18.136;2024-02-14T08:59:53;101628.16;;;2.98;81.55
79376;BME280;68846;53.150;18.136;2024-02-14T09:02:20;101633.36;;;3.04;81.71
79376;BME280;68846;53.150;18.136;2024-02-14T09:09:22;101634.70;;;3.21;82.04
79376;BME280;68846;53.150;18.136;2024-02-14T09:12:40;101628.83;;;3.29;82.06
79376;BME280;68846;53.150;18.136;2024-02-14T09:15:08;101627.61;;;3.38;81.94
79376;BME280;68846;53.150;18.136;2024-02-14T09:17:35;101631.46;;;3.44;82.01
79376;BME280;68846;53.150;18.136;2024-02-14T09:20:03;101629.23;;;3.52;81.98
79376;BME280;68846;53.150;18.136;2024-02-14T09:22:30;101633.98;;;3.59;81.95
79376;BME280;68846;53.150;18.136;2024-02-14T09:25:24;101636.77;;;3.65;81.61
79376;BME280;68846;53.150;18.136;2024-02-14T09:27:52;101635.64;;;3.74;81.71
79376;BME280;68846;53.150;18.136;2024-02-14T09:30:20;101636.35;;;3.81;81.57
79376;BME280;68846;53.150;18.136;2024-02-14T09:32:47;101641.42;;;3.87;81.43
79376;BME280;68846;53.150;18.136;2024-02-14T09:35:14;101634.83;;;3.94;81.29
79376;BME280;68846;53.150;18.136;2024-02-14T09:37:41;101636.20;;;4.01;81.09
79376;BME280;68846;53.150;18.136;2024-02-14T09:40:09;101635.80;;;4.07;80.83
79376;BME280;68846;53.150;18.136;2024-02-14T09:42:53;101636.90;;;4.11;80.79
79376;BME280;68846;53.150;18.136;2024-02-14T09:45:24;101631.73;;;4.15;80.48
79376;BME280;68846;53.150;18.136;2024-02-14T09:47:52;101631.73;;;4.19;80.41
79376;BME280;68846;53.150;18.136;2024-02-14T09:50:20;101631.44;;;4.23;80.26
79376;BME280;68846;53.150;18.136;2024-02-14T09:52:48;101628.46;;;4.26;80.31
79376;BME280;68846;53.150;18.136;2024-02-14T09:55:17;101622.91;;;4.30;80.33
79376;BME280;68846;53.150;18.136;2024-02-14T09:57:46;101621.81;;;4.36;79.95
79376;BME280;68846;53.150;18.136;2024-02-14T10:00:14;101622.14;;;4.43;79.63
79376;BME280;68846;53.150;18.136;2024-02-14T10:02:43;101624.40;;;4.49;79.80
79376;BME280;68846;53.150;18.136;2024-02-14T10:05:10;101627.48;;;4.55;79.59
79376;BME280;68846;53.150;18.136;2024-02-14T10:07:42;101623.35;;;4.60;79.33
79376;BME280;68846;53.150;18.136;2024-02-14T10:10:11;101620.86;;;4.66;79.32
79376;BME280;68846;53.150;18.136;2024-02-14T10:12:38;101622.86;;;4.70;79.50
79376;BME280;68846;53.150;18.136;2024-02-14T10:15:08;101619.10;;;4.76;79.16
79376;BME280;68846;53.150;18.136;2024-02-14T10:17:35;101614.27;;;4.80;79.10
79376;BME280;68846;53.150;18.136;2024-02-14T10:20:03;101611.70;;;4.85;78.93
79376;BME280;68846;53.150;18.136;2024-02-14T10:22:38;101606.85;;;4.90;78.80
79376;BME280;68846;53.150;18.136;2024-02-14T10:25:06;101600.69;;;4.95;78.91
79376;BME280;68846;53.150;18.136;2024-02-14T10:27:37;101596.55;;;5.04;78.98
79376;BME280;68846;53.150;18.136;2024-02-14T10:30:09;101599.09;;;5.13;78.76
79376;BME280;68846;53.150;18.136;2024-02-14T10:32:38;101595.83;;;5.22;78.94
79376;BME280;68846;53.150;18.136;2024-02-14T10:35:07;101594.77;;;5.29;78.28
79376;BME280;68846;53.150;18.136;2024-02-14T10:37:35;101591.60;;;5.36;78.23
79376;BME280;68846;53.150;18.136;2024-02-14T10:40:03;101592.60;;;5.43;77.42
79376;BME280;68846;53.150;18.136;2024-02-14T10:42:33;101590.80;;;5.49;77.40
79376;BME280;68846;53.150;18.136;2024-02-14T10:45:01;101585.65;;;5.54;76.26
79376;BME280;68846;53.150;18.136;2024-02-14T10:47:35;101583.94;;;5.59;76.60
79376;BME280;68846;53.150;18.136;2024-02-14T10:50:04;101578.00;;;5.63;75.30
79376;BME280;68846;53.150;18.136;2024-02-14T10:52:36;101578.30;;;5.66;75.74
79376;BME280;68846;53.150;18.136;2024-02-14T10:55:07;101576.14;;;5.69;76.12
79376;BME280;68846;53.150;18.136;2024-02-14T10:57:35;101574.45;;;5.70;76.29
79376;BME280;68846;53.150;18.136;2024-02-14T11:00:10;101571.77;;;5.73;76.53
79376;BME280;68846;53.150;18.136;2024-02-14T11:02:41;101572.25;;;5.76;75.48
79376;BME280;68846;53.150;18.136;2024-02-14T11:05:16;101569.56;;;5.78;75.28
79376;BME280;68846;53.150;18.136;2024-02-14T11:07:46;101565.56;;;5.78;74.75
79376;BME280;68846;53.150;18.136;2024-02-14T11:10:16;101565.42;;;5.79;75.25
79376;BME280;68846;53.150;18.136;2024-02-14T11:12:43;101563.59;;;5.81;74.60
79376;BME280;68846;53.150;18.136;2024-02-14T11:15:23;101562.13;;;5.83;75.01
79376;BME280;68846;53.150;18.136;2024-02-14T11:18:05;101559.50;;;5.87;74.57
79376;BME280;68846;53.150;18.136;2024-02-14T11:20:36;101554.08;;;5.95;74.78
79376;BME280;68846;53.150;18.136;2024-02-14T11:23:05;101550.87;;;6.01;75.39
79376;BME280;68846;53.150;18.136;2024-02-14T11:25:34;101548.42;;;6.09;75.29
79376;BME280;68846;53.150;18.136;2024-02-14T11:28:16;101544.88;;;6.16;75.46
79376;BME280;68846;53.150;18.136;2024-02-14T11:30:44;101541.41;;;6.25;74.74
79376;BME280;68846;53.150;18.136;2024-02-14T11:33:23;101538.10;;;6.34;75.07
79376;BME280;68846;53.150;18.136;2024-02-14T11:35:54;101537.34;;;6.41;74.89
79376;BME280;68846;53.150;18.136;2024-02-14T11:38:23;101541.42;;;6.47;74.76
79376;BME280;68846;53.150;18.136;2024-02-14T11:40:54;101530.77;;;6.52;74.38
79376;BME280;68846;53.150;18.136;2024-02-14T11:43:24;101530.92;;;6.55;74.31
79376;BME280;68846;53.150;18.136;2024-02-14T11:45:52;101527.92;;;6.59;73.96
79376;BME280;68846;53.150;18.136;2024-02-14T11:48:20;101524.04;;;6.62;73.84
79376;BME280;68846;53.150;18.136;2024-02-14T11:50:47;101520.64;;;6.65;74.10
79376;BME280;68846;53.150;18.136;2024-02-14T11:53:15;101516.58;;;6.68;73.90
79376;BME280;68846;53.150;18.136;2024-02-14T11:55:45;101517.60;;;6.72;74.25
79376;BME280;68846;53.150;18.136;2024-02-14T11:58:17;101514.60;;;6.77;74.10
79376;BME280;68846;53.150;18.136;2024-02-14T12:00:47;101513.54;;;6.80;73.93
79376;BME280;68846;53.150;18.136;2024-02-14T12:03:20;101514.03;;;6.84;72.72
79376;BME280;68846;53.150;18.136;2024-02-14T12:05:53;101512.27;;;6.88;72.91
79376;BME280;68846;53.150;18.136;2024-02-14T12:08:21;101514.24;;;6.94;73.45
79376;BME280;68846;53.150;18.136;2024-02-14T12:10:49;101509.91;;;7.00;73.55
79376;BME280;68846;53.150;18.136;2024-02-14T12:13:21;101509.38;;;7.04;73.43
79376;BME280;68846;53.150;18.136;2024-02-14T12:15:50;101503.95;;;7.08;73.04
79376;BME280;68846;53.150;18.136;2024-02-14T12:18:19;101504.23;;;7.12;72.56
79376;BME280;68846;53.150;18.136;2024-02-14T12:20:47;101502.94;;;7.14;72.94
79376;BME280;68846;53.150;18.136;2024-02-14T12:23:18;101499.52;;;7.17;73.19
79376;BME280;68846;53.150;18.136;2024-02-14T12:25:46;101503.10;;;7.19;73.12
79376;BME280;68846;53.150;18.136;2024-02-14T12:28:16;101500.20;;;7.20;72.73
79376;BME280;68846;53.150;18.136;2024-02-14T12:30:51;101498.48;;;7.21;72.16
79376;BME280;68846;53.150;18.136;2024-02-14T12:33:28;101490.23;;;7.20;71.99
79376;BME280;68846;53.150;18.136;2024-02-14T12:35:57;101487.98;;;7.21;72.56
79376;BME280;68846;53.150;18.136;2024-02-14T12:38:25;101485.95;;;7.24;72.68
79376;BME280;68846;53.150;18.136;2024-02-14T12:40:52;101486.69;;;7.25;72.72
79376;BME280;68846;53.150;18.136;2024-02-14T12:43:21;101489.36;;;7.26;72.48
79376;BME280;68846;53.150;18.136;2024-02-14T12:45:48;101485.02;;;7.27;71.42
79376;BME280;68846;53.150;18.136;2024-02-14T12:48:23;101478.77;;;7.29;71.71
79376;BME280;68846;53.150;18.136;2024-02-14T12:50:53;101479.07;;;7.32;71.02
79376;BME280;68846;53.150;18.136;2024-02-14T12:53:21;101477.39;;;7.34;71.57
79376;BME280;68846;53.150;18.136;2024-02-14T12:55:49;101473.97;;;7.36;71.59
79376;BME280;68846;53.150;18.136;2024-02-14T12:58:16;101471.88;;;7.37;71.24
79376;BME280;68846;53.150;18.136;2024-02-14T13:00:43;101468.63;;;7.38;71.44
79376;BME280;68846;53.150;18.136;2024-02-14T13:03:12;101471.29;;;7.39;71.30
79376;BME280;68846;53.150;18.136;2024-02-14T13:05:39;101475.59;;;7.37;70.22
79376;BME280;68846;53.150;18.136;2024-02-14T13:08:08;101474.81;;;7.35;70.68
79376;BME280;68846;53.150;18.136;2024-02-14T13:10:38;101474.39;;;7.33;70.82
79376;BME280;68846;53.150;18.136;2024-02-14T13:13:05;101472.23;;;7.32;70.38
79376;BME280;68846;53.150;18.136;2024-02-14T13:15:32;101471.80;;;7.30;70.52
79376;BME280;68846;53.150;18.136;2024-02-14T13:17:59;101471.08;;;7.29;70.65
79376;BME280;68846;53.150;18.136;2024-02-14T13:20:27;101474.38;;;7.28;70.31
79376;BME280;68846;53.150;18.136;2024-02-14T13:22:55;101473.99;;;7.27;70.23
79376;BME280;68846;53.150;18.136;2024-02-14T13:27:29;101476.36;;;7.30;70.20
79376;BME280;68846;53.150;18.136;2024-02-14T13:29:57;101479.20;;;7.26;70.23
79376;BME280;68846;53.150;18.136;2024-02-14T13:32:24;101470.00;;;7.24;70.38
79376;BME280;68846;53.150;18.136;2024-02-14T13:34:52;101474.34;;;7.22;70.11
79376;BME280;68846;53.150;18.136;2024-02-14T13:37:22;101472.48;;;7.19;68.93
79376;BME280;68846;53.150;18.136;2024-02-14T13:39:51;101470.98;;;7.17;69.60
79376;BME280;68846;53.150;18.136;2024-02-14T13:42:18;101474.63;;;7.16;69.54
79376;BME280;68846;53.150;18.136;2024-02-14T13:44:45;101475.59;;;7.14;68.76
79376;BME280;68846;53.150;18.136;2024-02-14T13:47:14;101473.92;;;7.11;69.04
79376;BME280;68846;53.150;18.136;2024-02-14T13:49:45;101474.94;;;7.10;69.08
79376;BME280;68846;53.150;18.136;2024-02-14T13:52:12;101478.96;;;7.10;69.42
79376;BME280;68846;53.150;18.136;2024-02-14T13:54:42;101480.58;;;7.11;69.52
79376;BME280;68846;53.150;18.136;2024-02-14T13:57:09;101482.11;;;7.10;69.07
79376;BME280;68846;53.150;18.136;2024-02-14T13:59:38;101484.90;;;7.09;69.12
79376;BME280;68846;53.150;18.136;2024-02-14T14:02:07;101486.02;;;7.07;68.91
79376;BME280;68846;53.150;18.136;2024-02-14T14:04:38;101484.73;;;7.05;69.08
79376;BME280;68846;53.150;18.136;2024-02-14T14:07:06;101490.43;;;7.03;69.19
79376;BME280;68846;53.150;18.136;2024-02-14T14:09:35;101491.20;;;7.01;69.19
79376;BME280;68846;53.150;18.136;2024-02-14T14:12:04;101490.55;;;6.97;69.62
79376;BME280;68846;53.150;18.136;2024-02-14T14:14:31;101498.41;;;6.96;69.70
79376;BME280;68846;53.150;18.136;2024-02-14T14:16:58;101496.89;;;6.93;69.47
79376;BME280;68846;53.150;18.136;2024-02-14T14:19:25;101495.58;;;6.91;69.86
79376;BME280;68846;53.150;18.136;2024-02-14T14:21:55;101493.89;;;6.88;70.07
79376;BME280;68846;53.150;18.136;2024-02-14T14:24:23;101496.02;;;6.89;70.68
79376;BME280;68846;53.150;18.136;2024-02-14T14:26:50;101502.46;;;6.88;70.82
79376;BME280;68846;53.150;18.136;2024-02-14T14:29:17;101500.16;;;6.88;70.90
79376;BME280;68846;53.150;18.136;2024-02-14T14:31:44;101504.16;;;6.87;71.13
79376;BME280;68846;53.150;18.136;2024-02-14T14:34:12;101502.91;;;6.86;71.48
79376;BME280;68846;53.150;18.136;2024-02-14T14:36:39;101498.54;;;6.86;71.77
79376;BME280;68846;53.150;18.136;2024-02-14T14:39:08;101496.55;;;6.85;71.34
79376;BME280;68846;53.150;18.136;2024-02-14T14:41:38;101500.76;;;6.84;72.13
79376;BME280;68846;53.150;18.136;2024-02-14T14:44:06;101500.91;;;6.84;72.00
79376;BME280;68846;53.150;18.136;2024-02-14T14:46:33;101501.91;;;6.83;72.31
79376;BME280;68846;53.150;18.136;2024-02-14T14:49:02;101503.95;;;6.82;71.67
79376;BME280;68846;53.150;18.136;2024-02-14T14:51:29;101502.82;;;6.79;72.26
79376;BME280;68846;53.150;18.136;2024-02-14T14:53:56;101502.05;;;6.78;71.97
79376;BME280;68846;53.150;18.136;2024-02-14T14:56:23;101505.04;;;6.78;72.55
79376;BME280;68846;53.150;18.136;2024-02-14T14:58:52;101502.45;;;6.79;72.60
79376;BME280;68846;53.150;18.136;2024-02-14T15:01:22;101505.33;;;6.77;72.56
79376;BME280;68846;53.150;18.136;2024-02-14T15:03:49;101505.27;;;6.76;72.52
79376;BME280;68846;53.150;18.136;2024-02-14T15:06:16;101508.23;;;6.74;72.48
79376;BME280;68846;53.150;18.136;2024-02-14T15:08:43;101508.02;;;6.74;72.89
79376;BME280;68846;53.150;18.136;2024-02-14T15:11:36;101506.98;;;6.74;73.43